sensor_id;sensor_type;location;lat;lon;timestamp;pressure;altitude;pressure_sealevel;temperature;humidity
75788;BME280;64406;50.024;14.492;2023-04-06T00:01:10;98452.06;;;-3.02;76.66
75788;BME280;64406;50.024;14.492;2023-04-06T00:03:36;98446.53;;;-3.07;76.30
75788;BME280;64406;50.024;14.492;2023-04-06T00:06:02;98437.41;;;-3.05;76.70
75788;BME280;64406;50.024;14.492;2023-04-06T00:08:28;98435.59;;;-3.04;76.32
75788;BME280;64406;50.024;14.492;2023-04-06T00:10:54;98442.59;;;-2.96;75.86
75788;BME280;64406;50.024;14.492;2023-04-06T00:13:20;98442.75;;;-2.98;75.85
75788;BME280;64406;50.024;14.492;2023-04-06T00:15:46;98447.47;;;-2.93;75.63
75788;BME280;64406;50.024;14.492;2023-04-06T00:18:12;98451.38;;;-2.89;75.48
75788;BME280;64406;50.024;14.492;2023-04-06T00:20:37;98448.56;;;-2.88;75.29
75788;BME280;64406;50.024;14.492;2023-04-06T00:23:03;98434.75;;;-2.90;75.16
75788;BME280;64406;50.024;14.492;2023-04-06T00:25:28;98445.53;;;-2.85;74.81
75788;BME280;64406;50.024;14.492;2023-04-06T00:27:54;98439.44;;;-2.85;74.71
75788;BME280;64406;50.024;14.492;2023-04-06T00:30:20;98436.66;;;-2.84;75.00
75788;BME280;64406;50.024;14.492;2023-04-06T00:32:46;98419.03;;;-2.98;75.46
75788;BME280;64406;50.024;14.492;2023-04-06T00:35:12;98433.69;;;-2.95;75.19
75788;BME280;64406;50.024;14.492;2023-04-06T00:37:37;98431.25;;;-2.97;75.22
75788;BME280;64406;50.024;14.492;2023-04-06T00:40:03;98425.31;;;-2.99;74.80
75788;BME280;64406;50.024;14.492;2023-04-06T00:42:29;98422.06;;;-3.01;75.16
75788;BME280;64406;50.024;14.492;2023-04-06T00:44:56;98426.06;;;-3.05;75.37
75788;BME280;64406;50.024;14.492;2023-04-06T00:47:23;98416.91;;;-3.09;75.57
75788;BME280;64406;50.024;14.492;2023-04-06T00:49:55;98415.66;;;-3.13;75.04
75788;BME280;64406;50.024;14.492;2023-04-06T00:52:21;98425.84;;;-3.10;75.42
75788;BME280;64406;50.024;14.492;2023-04-06T00:54:48;98410.56;;;-3.15;75.85
75788;BME280;64406;50.024;14.492;2023-04-06T00:57:14;98416.84;;;-3.16;76.31
75788;BME280;64406;50.024;14.492;2023-04-06T00:59:40;98414.56;;;-3.19;75.98
75788;BME280;64406;50.024;14.492;2023-04-06T01:02:06;98416.19;;;-3.18;76.59
75788;BME280;64406;50.024;14.492;2023-04-06T01:04:33;98415.59;;;-3.20;76.64
75788;BME280;64406;50.024;14.492;2023-04-06T01:06:59;98418.59;;;-3.23;76.42
75788;BME280;64406;50.024;14.492;2023-04-06T01:09:27;98411.88;;;-3.25;76.26
75788;BME280;64406;50.024;14.492;2023-04-06T01:11:53;98422.97;;;-3.30;76.68
75788;BME280;64406;50.024;14.492;2023-04-06T01:14:19;98419.69;;;-3.32;76.86
75788;BME280;64406;50.024;14.492;2023-04-06T01:16:45;98421.50;;;-3.33;76.78
75788;BME280;64406;50.024;14.492;2023-04-06T01:19:11;98418.06;;;-3.33;77.52
75788;BME280;64406;50.024;14.492;2023-04-06T01:21:38;98415.00;;;-3.37;77.78
75788;BME280;64406;50.024;14.492;2023-04-06T01:24:04;98414.09;;;-3.44;77.40
75788;BME280;64406;50.024;14.492;2023-04-06T01:26:31;98412.03;;;-3.48;77.59
75788;BME280;64406;50.024;14.492;2023-04-06T01:28:58;98410.75;;;-3.52;78.45
75788;BME280;64406;50.024;14.492;2023-04-06T01:31:25;98413.56;;;-3.54;78.91
75788;BME280;64406;50.024;14.492;2023-04-06T01:33:51;98409.38;;;-3.63;78.74
75788;BME280;64406;50.024;14.492;2023-04-06T01:36:17;98404.69;;;-3.68;78.98
75788;BME280;64406;50.024;14.492;2023-04-06T01:38:43;98411.84;;;-3.62;78.65
75788;BME280;64406;50.024;14.492;2023-04-06T01:41:09;98413.03;;;-3.64;78.48
75788;BME280;64406;50.024;14.492;2023-04-06T01:43:34;98403.56;;;-3.59;78.22
75788;BME280;64406;50.024;14.492;2023-04-06T01:46:01;98416.13;;;-3.61;78.60
75788;BME280;64406;50.024;14.492;2023-04-06T01:48:27;98410.56;;;-3.51;77.93
75788;BME280;64406;50.024;14.492;2023-04-06T01:50:53;98410.31;;;-3.56;77.91
75788;BME280;64406;50.024;14.492;2023-04-06T01:53:19;98404.97;;;-3.63;78.46
75788;BME280;64406;50.024;14.492;2023-04-06T01:55:45;98400.69;;;-3.64;78.39
75788;BME280;64406;50.024;14.492;2023-04-06T01:58:11;98401.06;;;-3.67;78.75
75788;BME280;64406;50.024;14.492;2023-04-06T02:00:37;98400.69;;;-3.64;78.95
75788;BME280;64406;50.024;14.492;2023-04-06T02:03:02;98396.06;;;-3.62;79.11
75788;BME280;64406;50.024;14.492;2023-04-06T02:05:30;98406.84;;;-3.57;78.31
75788;BME280;64406;50.024;14.492;2023-04-06T02:07:56;98403.16;;;-3.62;78.55
75788;BME280;64406;50.024;14.492;2023-04-06T02:10:22;98408.41;;;-3.62;78.39
75788;BME280;64406;50.024;14.492;2023-04-06T02:12:48;98404.13;;;-3.63;78.18
75788;BME280;64406;50.024;14.492;2023-04-06T02:15:14;98401.69;;;-3.65;78.83
75788;BME280;64406;50.024;14.492;2023-04-06T02:17:40;98408.94;;;-3.67;79.25
75788;BME280;64406;50.024;14.492;2023-04-06T02:20:07;98405.41;;;-3.74;79.48
75788;BME280;64406;50.024;14.492;2023-04-06T02:22:33;98401.41;;;-3.70;78.76
75788;BME280;64406;50.024;14.492;2023-04-06T02:24:59;98399.53;;;-3.76;79.20
75788;BME280;64406;50.024;14.492;2023-04-06T02:27:25;98397.72;;;-3.75;79.32
75788;BME280;64406;50.024;14.492;2023-04-06T02:29:51;98393.25;;;-3.75;79.43
75788;BME280;64406;50.024;14.492;2023-04-06T02:32:16;98396.97;;;-3.84;79.94
75788;BME280;64406;50.024;14.492;2023-04-06T02:34:42;98396.53;;;-3.88;79.94
75788;BME280;64406;50.024;14.492;2023-04-06T02:37:07;98397.44;;;-3.95;80.26
75788;BME280;64406;50.024;14.492;2023-04-06T02:39:33;98397.88;;;-3.92;80.27
75788;BME280;64406;50.024;14.492;2023-04-06T02:41:59;98396.72;;;-3.89;80.54
75788;BME280;64406;50.024;14.492;2023-04-06T02:44:25;98391.56;;;-3.83;80.66
75788;BME280;64406;50.024;14.492;2023-04-06T02:46:50;98400.34;;;-3.75;79.43
75788;BME280;64406;50.024;14.492;2023-04-06T02:49:16;98395.97;;;-3.83;80.33
75788;BME280;64406;50.024;14.492;2023-04-06T02:51:41;98386.56;;;-3.92;80.04
75788;BME280;64406;50.024;14.492;2023-04-06T02:54:07;98393.91;;;-3.88;80.52
75788;BME280;64406;50.024;14.492;2023-04-06T02:56:33;98396.16;;;-3.99;80.64
75788;BME280;64406;50.024;14.492;2023-04-06T02:58:58;98401.63;;;-4.01;80.80
75788;BME280;64406;50.024;14.492;2023-04-06T03:01:24;98394.53;;;-4.00;80.41
75788;BME280;64406;50.024;14.492;2023-04-06T03:03:50;98400.63;;;-4.00;80.29
75788;BME280;64406;50.024;14.492;2023-04-06T03:06:15;98406.06;;;-4.01;79.39
75788;BME280;64406;50.024;14.492;2023-04-06T03:08:41;98396.34;;;-4.01;80.01
75788;BME280;64406;50.024;14.492;2023-04-06T03:11:06;98398.09;;;-4.08;79.35
75788;BME280;64406;50.024;14.492;2023-04-06T03:13:32;98392.72;;;-4.15;80.07
75788;BME280;64406;50.024;14.492;2023-04-06T03:15:58;98410.03;;;-4.05;80.13
75788;BME280;64406;50.024;14.492;2023-04-06T03:18:24;98408.50;;;-4.15;79.78
75788;BME280;64406;50.024;14.492;2023-04-06T03:20:50;98408.50;;;-4.15;80.42
75788;BME280;64406;50.024;14.492;2023-04-06T03:23:16;98400.06;;;-4.25;79.78
75788;BME280;64406;50.024;14.492;2023-04-06T03:25:42;98399.78;;;-4.30;80.94
75788;BME280;64406;50.024;14.492;2023-04-06T03:28:07;98400.13;;;-4.33;80.83
75788;BME280;64406;50.024;14.492;2023-04-06T03:30:34;98403.59;;;-4.32;81.44
75788;BME280;64406;50.024;14.492;2023-04-06T03:33:00;98402.47;;;-4.38;81.45
75788;BME280;64406;50.024;14.492;2023-04-06T03:35:25;98400.84;;;-4.39;81.33
75788;BME280;64406;50.024;14.492;2023-04-06T03:37:51;98400.84;;;-4.39;81.34
75788;BME280;64406;50.024;14.492;2023-04-06T03:40:16;98404.94;;;-4.37;81.51
75788;BME280;64406;50.024;14.492;2023-04-06T03:42:42;98411.00;;;-4.36;81.32
75788;BME280;64406;50.024;14.492;2023-04-06T03:45:08;98409.13;;;-4.42;81.99
75788;BME280;64406;50.024;14.492;2023-04-06T03:47:34;98417.63;;;-4.40;81.18
75788;BME280;64406;50.024;14.492;2023-04-06T03:49:59;98419.63;;;-4.42;82.12
75788;BME280;64406;50.024;14.492;2023-04-06T03:52:25;98419.88;;;-4.37;81.65
75788;BME280;64406;50.024;14.492;2023-04-06T03:54:51;98422.50;;;-4.37;81.39
75788;BME280;64406;50.024;14.492;2023-04-06T03:57:17;98409.56;;;-4.39;81.55
75788;BME280;64406;50.024;14.492;2023-04-06T03:59:42;98420.06;;;-4.39;81.79
75788;BME280;64406;50.024;14.492;2023-04-06T04:02:08;98423.09;;;-4.27;81.13
75788;BME280;64406;50.024;14.492;2023-04-06T04:04:33;98429.25;;;-4.34;80.86
75788;BME280;64406;50.024;14.492;2023-04-06T04:06:59;98429.16;;;-4.26;81.41
75788;BME280;64406;50.024;14.492;2023-04-06T04:09:25;98433.78;;;-4.28;81.48
75788;BME280;64406;50.024;14.492;2023-04-06T04:11:50;98432.69;;;-4.34;80.75
75788;BME280;64406;50.024;14.492;2023-04-06T04:14:16;98427.16;;;-4.39;81.16
75788;BME280;64406;50.024;14.492;2023-04-06T04:16:42;98438.13;;;-4.35;81.90
75788;BME280;64406;50.024;14.492;2023-04-06T04:19:07;98429.88;;;-4.32;81.34
75788;BME280;64406;50.024;14.492;2023-04-06T04:21:33;98432.03;;;-4.36;80.88
75788;BME280;64406;50.024;14.492;2023-04-06T04:23:59;98438.94;;;-4.35;80.92
75788;BME280;64406;50.024;14.492;2023-04-06T04:26:24;98431.78;;;-4.26;80.93
75788;BME280;64406;50.024;14.492;2023-04-06T04:28:50;98422.38;;;-4.06;80.10
75788;BME280;64406;50.024;14.492;2023-04-06T04:31:16;98440.22;;;-4.16;80.35
75788;BME280;64406;50.024;14.492;2023-04-06T04:33:43;98434.16;;;-4.17;80.92
75788;BME280;64406;50.024;14.492;2023-04-06T04:36:09;98434.53;;;-4.20;80.59
75788;BME280;64406;50.024;14.492;2023-04-06T04:38:35;98438.78;;;-4.19;80.19
75788;BME280;64406;50.024;14.492;2023-04-06T04:41:01;98446.28;;;-4.30;80.57
75788;BME280;64406;50.024;14.492;2023-04-06T04:43:26;98440.41;;;-4.32;81.23
75788;BME280;64406;50.024;14.492;2023-04-06T04:45:52;98440.69;;;-4.27;81.40
75788;BME280;64406;50.024;14.492;2023-04-06T04:48:17;98428.97;;;-4.25;81.43
75788;BME280;64406;50.024;14.492;2023-04-06T04:50:43;98437.88;;;-4.26;80.51
75788;BME280;64406;50.024;14.492;2023-04-06T04:53:09;98448.69;;;-4.21;81.34
75788;BME280;64406;50.024;14.492;2023-04-06T04:55:35;98435.88;;;-4.24;80.99
75788;BME280;64406;50.024;14.492;2023-04-06T04:58:00;98441.22;;;-4.32;81.56
75788;BME280;64406;50.024;14.492;2023-04-06T05:00:27;98440.59;;;-4.34;81.60
75788;BME280;64406;50.024;14.492;2023-04-06T05:02:53;98450.38;;;-4.28;80.81
75788;BME280;64406;50.024;14.492;2023-04-06T05:05:19;98450.19;;;-4.26;80.42
75788;BME280;64406;50.024;14.492;2023-04-06T05:07:44;98448.38;;;-4.26;81.22
75788;BME280;64406;50.024;14.492;2023-04-06T05:10:10;98452.75;;;-4.18;80.97
75788;BME280;64406;50.024;14.492;2023-04-06T05:12:37;98449.69;;;-4.07;80.45
75788;BME280;64406;50.024;14.492;2023-04-06T05:15:03;98452.03;;;-3.97;80.08
75788;BME280;64406;50.024;14.492;2023-04-06T05:17:29;98447.59;;;-3.97;79.37
75788;BME280;64406;50.024;14.492;2023-04-06T05:19:54;98447.25;;;-3.94;79.48
75788;BME280;64406;50.024;14.492;2023-04-06T05:22:20;98451.88;;;-3.96;79.38
75788;BME280;64406;50.024;14.492;2023-04-06T05:24:46;98450.41;;;-3.84;79.29
75788;BME280;64406;50.024;14.492;2023-04-06T05:27:12;98449.34;;;-3.89;79.74
75788;BME280;64406;50.024;14.492;2023-04-06T05:29:37;98450.69;;;-3.93;79.76
75788;BME280;64406;50.024;14.492;2023-04-06T05:32:03;98452.41;;;-3.86;80.16
75788;BME280;64406;50.024;14.492;2023-04-06T05:34:29;98453.31;;;-3.78;79.57
75788;BME280;64406;50.024;14.492;2023-04-06T05:36:54;98453.41;;;-3.72;79.83
75788;BME280;64406;50.024;14.492;2023-04-06T05:39:20;98454.97;;;-3.63;79.82
75788;BME280;64406;50.024;14.492;2023-04-06T05:41:46;98451.88;;;-3.51;79.33
75788;BME280;64406;50.024;14.492;2023-04-06T05:44:11;98464.09;;;-3.44;78.91
75788;BME280;64406;50.024;14.492;2023-04-06T05:46:37;98456.69;;;-3.40;78.33
75788;BME280;64406;50.024;14.492;2023-04-06T05:49:03;98460.28;;;-3.26;77.48
75788;BME280;64406;50.024;14.492;2023-04-06T05:51:28;98460.75;;;-3.23;77.22
75788;BME280;64406;50.024;14.492;2023-04-06T05:53:54;98457.19;;;-3.15;77.70
75788;BME280;64406;50.024;14.492;2023-04-06T05:56:20;98459.16;;;-3.03;76.67
75788;BME280;64406;50.024;14.492;2023-04-06T05:58:45;98460.59;;;-3.00;77.11
75788;BME280;64406;50.024;14.492;2023-04-06T06:01:11;98455.59;;;-2.95;76.47
75788;BME280;64406;50.024;14.492;2023-04-06T06:03:37;98461.88;;;-2.53;75.36
75788;BME280;64406;50.024;14.492;2023-04-06T06:06:03;98462.41;;;-2.15;74.19
75788;BME280;64406;50.024;14.492;2023-04-06T06:08:29;98456.94;;;-1.79;72.21
75788;BME280;64406;50.024;14.492;2023-04-06T06:10:55;98457.59;;;-1.77;71.73
75788;BME280;64406;50.024;14.492;2023-04-06T06:13:21;98465.84;;;-1.86;72.19
75788;BME280;64406;50.024;14.492;2023-04-06T06:15:48;98462.97;;;-1.92;72.65
75788;BME280;64406;50.024;14.492;2023-04-06T06:18:14;98460.75;;;-1.88;73.97
75788;BME280;64406;50.024;14.492;2023-04-06T06:20:40;98473.97;;;-1.88;73.43
75788;BME280;64406;50.024;14.492;2023-04-06T06:23:05;98460.31;;;-1.92;73.28
75788;BME280;64406;50.024;14.492;2023-04-06T06:25:32;98464.69;;;-1.77;72.61
75788;BME280;64406;50.024;14.492;2023-04-06T06:27:58;98461.69;;;-1.68;72.24
75788;BME280;64406;50.024;14.492;2023-04-06T06:30:24;98464.53;;;-1.69;72.27
75788;BME280;64406;50.024;14.492;2023-04-06T06:32:50;98474.31;;;-1.63;71.41
75788;BME280;64406;50.024;14.492;2023-04-06T06:35:16;98458.94;;;-1.53;71.16
75788;BME280;64406;50.024;14.492;2023-04-06T06:37:42;98468.34;;;-1.44;71.26
75788;BME280;64406;50.024;14.492;2023-04-06T06:40:09;98461.47;;;-1.38;70.99
75788;BME280;64406;50.024;14.492;2023-04-06T06:42:35;98465.97;;;-1.32;70.74
75788;BME280;64406;50.024;14.492;2023-04-06T06:45:01;98459.91;;;-1.19;70.36
75788;BME280;64406;50.024;14.492;2023-04-06T06:47:27;98465.03;;;-1.11;70.21
75788;BME280;64406;50.024;14.492;2023-04-06T06:49:52;98467.50;;;-1.03;71.19
75788;BME280;64406;50.024;14.492;2023-04-06T06:52:18;98464.66;;;-1.01;70.56
75788;BME280;64406;50.024;14.492;2023-04-06T06:54:44;98458.56;;;-0.95;70.23
75788;BME280;64406;50.024;14.492;2023-04-06T06:57:12;98461.84;;;-0.80;69.53
75788;BME280;64406;50.024;14.492;2023-04-06T06:59:38;98470.22;;;-0.70;69.73
75788;BME280;64406;50.024;14.492;2023-04-06T07:02:04;98461.69;;;-0.65;69.82
75788;BME280;64406;50.024;14.492;2023-04-06T07:04:29;98458.88;;;-0.50;68.80
75788;BME280;64406;50.024;14.492;2023-04-06T07:06:55;98462.94;;;-0.41;69.27
75788;BME280;64406;50.024;14.492;2023-04-06T07:09:21;98469.25;;;-0.29;69.70
75788;BME280;64406;50.024;14.492;2023-04-06T07:11:47;98471.09;;;-0.16;69.67
75788;BME280;64406;50.024;14.492;2023-04-06T07:14:15;98458.88;;;-0.04;68.99
75788;BME280;64406;50.024;14.492;2023-04-06T07:16:40;98446.03;;;-0.01;68.02
75788;BME280;64406;50.024;14.492;2023-04-06T07:19:06;98452.16;;;0.13;67.78
75788;BME280;64406;50.024;14.492;2023-04-06T07:21:32;98451.94;;;0.21;66.90
75788;BME280;64406;50.024;14.492;2023-04-06T07:23:58;98456.19;;;0.36;66.76
75788;BME280;64406;50.024;14.492;2023-04-06T07:26:23;98452.91;;;0.47;66.27
75788;BME280;64406;50.024;14.492;2023-04-06T07:28:49;98449.00;;;0.56;65.53
75788;BME280;64406;50.024;14.492;2023-04-06T07:31:15;98465.06;;;0.68;64.63
75788;BME280;64406;50.024;14.492;2023-04-06T07:33:40;98452.78;;;0.80;64.65
75788;BME280;64406;50.024;14.492;2023-04-06T07:36:06;98459.44;;;0.96;63.72
75788;BME280;64406;50.024;14.492;2023-04-06T07:38:32;98447.59;;;0.98;63.78
75788;BME280;64406;50.024;14.492;2023-04-06T07:40:57;98444.50;;;1.08;64.24
75788;BME280;64406;50.024;14.492;2023-04-06T07:43:24;98448.91;;;1.21;63.83
75788;BME280;64406;50.024;14.492;2023-04-06T07:45:49;98454.97;;;1.34;62.98
75788;BME280;64406;50.024;14.492;2023-04-06T07:48:15;98445.53;;;1.39;62.26
75788;BME280;64406;50.024;14.492;2023-04-06T07:50:41;98452.22;;;1.48;61.60
75788;BME280;64406;50.024;14.492;2023-04-06T07:53:08;98454.53;;;1.69;61.29
75788;BME280;64406;50.024;14.492;2023-04-06T07:55:34;98444.06;;;1.74;60.49
75788;BME280;64406;50.024;14.492;2023-04-06T07:58:00;98454.75;;;1.93;60.27
75788;BME280;64406;50.024;14.492;2023-04-06T08:00:25;98450.19;;;2.00;60.07
75788;BME280;64406;50.024;14.492;2023-04-06T08:02:51;98456.56;;;2.17;59.52
75788;BME280;64406;50.024;14.492;2023-04-06T08:05:16;98441.53;;;2.29;59.94
75788;BME280;64406;50.024;14.492;2023-04-06T08:07:43;98448.72;;;2.47;60.08
75788;BME280;64406;50.024;14.492;2023-04-06T08:10:09;98442.72;;;2.70;58.78
75788;BME280;64406;50.024;14.492;2023-04-06T08:12:35;98448.78;;;2.77;58.69
75788;BME280;64406;50.024;14.492;2023-04-06T08:15:00;98450.13;;;2.86;56.99
75788;BME280;64406;50.024;14.492;2023-04-06T08:17:28;98442.13;;;2.86;56.73
75788;BME280;64406;50.024;14.492;2023-04-06T08:19:55;98443.09;;;2.92;56.38
75788;BME280;64406;50.024;14.492;2023-04-06T08:22:21;98454.22;;;3.00;57.39
75788;BME280;64406;50.024;14.492;2023-04-06T08:24:46;98447.38;;;3.23;55.17
75788;BME280;64406;50.024;14.492;2023-04-06T08:27:12;98439.09;;;3.31;54.37
75788;BME280;64406;50.024;14.492;2023-04-06T08:29:40;98444.00;;;3.46;52.56
75788;BME280;64406;50.024;14.492;2023-04-06T08:32:06;98442.22;;;3.70;51.85
75788;BME280;64406;50.024;14.492;2023-04-06T08:34:32;98424.56;;;3.69;51.94
75788;BME280;64406;50.024;14.492;2023-04-06T08:36:58;98435.72;;;3.77;51.36
75788;BME280;64406;50.024;14.492;2023-04-06T08:39:24;98436.19;;;3.74;51.36
75788;BME280;64406;50.024;14.492;2023-04-06T08:41:53;98430.97;;;3.79;51.20
75788;BME280;64406;50.024;14.492;2023-04-06T08:44:22;98430.28;;;3.84;49.44
75788;BME280;64406;50.024;14.492;2023-04-06T08:46:48;98438.66;;;3.99;49.30
75788;BME280;64406;50.024;14.492;2023-04-06T08:49:14;98436.44;;;4.08;48.82
75788;BME280;64406;50.024;14.492;2023-04-06T08:51:41;98430.28;;;4.07;46.56
75788;BME280;64406;50.024;14.492;2023-04-06T08:54:07;98430.41;;;4.13;45.51
75788;BME280;64406;50.024;14.492;2023-04-06T08:56:33;98434.94;;;4.24;46.17
75788;BME280;64406;50.024;14.492;2023-04-06T08:59:02;98436.34;;;4.38;44.37
75788;BME280;64406;50.024;14.492;2023-04-06T09:01:29;98436.78;;;4.47;44.68
75788;BME280;64406;50.024;14.492;2023-04-06T09:03:57;98440.38;;;4.52;43.02
75788;BME280;64406;50.024;14.492;2023-04-06T09:06:24;98434.59;;;4.44;43.96
75788;BME280;64406;50.024;14.492;2023-04-06T09:08:52;98439.44;;;4.47;44.09
75788;BME280;64406;50.024;14.492;2023-04-06T09:11:21;98428.31;;;4.50;44.64
75788;BME280;64406;50.024;14.492;2023-04-06T09:13:52;98422.19;;;4.49;45.10
75788;BME280;64406;50.024;14.492;2023-04-06T09:16:18;98430.06;;;4.56;45.91
75788;BME280;64406;50.024;14.492;2023-04-06T09:18:44;98431.81;;;4.50;44.68
75788;BME280;64406;50.024;14.492;2023-04-06T09:21:11;98427.16;;;4.57;44.02
75788;BME280;64406;50.024;14.492;2023-04-06T09:23:37;98419.81;;;4.64;42.56
75788;BME280;64406;50.024;14.492;2023-04-06T09:26:15;98417.03;;;4.59;43.66
75788;BME280;64406;50.024;14.492;2023-04-06T09:28:49;98422.81;;;4.68;44.17
75788;BME280;64406;50.024;14.492;2023-04-06T09:31:15;98418.25;;;4.80;43.69
75788;BME280;64406;50.024;14.492;2023-04-06T09:33:43;98415.53;;;5.04;44.73
75788;BME280;64406;50.024;14.492;2023-04-06T09:36:09;98411.94;;;5.27;43.18
75788;BME280;64406;50.024;14.492;2023-04-06T09:41:34;98409.16;;;5.67;42.30
75788;BME280;64406;50.024;14.492;2023-04-06T09:44:07;98415.66;;;5.88;41.52
75788;BME280;64406;50.024;14.492;2023-04-06T09:46:40;98411.84;;;5.67;41.22
75788;BME280;64406;50.024;14.492;2023-04-06T09:49:07;98414.59;;;5.72;40.75
75788;BME280;64406;50.024;14.492;2023-04-06T09:54:02;98413.00;;;5.88;37.36
75788;BME280;64406;50.024;14.492;2023-04-06T09:56:56;98404.81;;;5.78;38.06
75788;BME280;64406;50.024;14.492;2023-04-06T09:59:37;98390.97;;;5.97;38.24
75788;BME280;64406;50.024;14.492;2023-04-06T10:02:05;98388.13;;;6.04;38.65
75788;BME280;64406;50.024;14.492;2023-04-06T10:05:05;98395.75;;;5.95;39.34
75788;BME280;64406;50.024;14.492;2023-04-06T10:07:28;98391.69;;;6.10;38.21
75788;BME280;64406;50.024;14.492;2023-04-06T10:09:54;98389.63;;;6.77;38.10
75788;BME280;64406;50.024;14.492;2023-04-06T10:12:21;98391.94;;;6.91;37.28
75788;BME280;64406;50.024;14.492;2023-04-06T10:14:46;98391.88;;;6.86;35.60
75788;BME280;64406;50.024;14.492;2023-04-06T10:17:12;98387.31;;;7.08;35.76
75788;BME280;64406;50.024;14.492;2023-04-06T10:19:52;98389.25;;;7.40;35.78
75788;BME280;64406;50.024;14.492;2023-04-06T10:22:28;98389.59;;;7.21;35.89
75788;BME280;64406;50.024;14.492;2023-04-06T10:24:55;98388.94;;;7.36;34.98
75788;BME280;64406;50.024;14.492;2023-04-06T10:27:30;98380.47;;;6.95;35.13
75788;BME280;64406;50.024;14.492;2023-04-06T10:30:06;98387.03;;;6.61;37.11
75788;BME280;64406;50.024;14.492;2023-04-06T10:32:38;98393.03;;;6.29;37.36
75788;BME280;64406;50.024;14.492;2023-04-06T10:35:08;98392.41;;;6.05;37.94
75788;BME280;64406;50.024;14.492;2023-04-06T10:38:07;98380.44;;;6.08;37.09
75788;BME280;64406;50.024;14.492;2023-04-06T10:40:38;98374.38;;;6.56;37.48
75788;BME280;64406;50.024;14.492;2023-04-06T10:43:10;98371.25;;;6.86;35.73
75788;BME280;64406;50.024;14.492;2023-04-06T10:45:36;98360.72;;;6.79;35.39
75788;BME280;64406;50.024;14.492;2023-04-06T10:48:39;98359.06;;;7.22;34.71
75788;BME280;64406;50.024;14.492;2023-04-06T10:51:18;98362.72;;;7.75;33.36
75788;BME280;64406;50.024;14.492;2023-04-06T10:53:47;98353.75;;;7.97;33.63
75788;BME280;64406;50.024;14.492;2023-04-06T10:56:15;98356.66;;;8.32;34.30
75788;BME280;64406;50.024;14.492;2023-04-06T10:58:48;98345.31;;;8.25;32.82
75788;BME280;64406;50.024;14.492;2023-04-06T11:01:15;98343.34;;;8.58;33.41
75788;BME280;64406;50.024;14.492;2023-04-06T11:03:46;98348.91;;;8.36;33.86
75788;BME280;64406;50.024;14.492;2023-04-06T11:06:18;98347.50;;;8.28;32.77
75788;BME280;64406;50.024;14.492;2023-04-06T11:08:44;98352.00;;;8.12;33.14
75788;BME280;64406;50.024;14.492;2023-04-06T11:11:14;98340.38;;;8.49;31.54
75788;BME280;64406;50.024;14.492;2023-04-06T11:13:58;98341.47;;;8.48;31.21
75788;BME280;64406;50.024;14.492;2023-04-06T11:16:30;98342.25;;;8.49;31.86
75788;BME280;64406;50.024;14.492;2023-04-06T11:18:59;98338.41;;;9.02;31.25
75788;BME280;64406;50.024;14.492;2023-04-06T11:26:30;98334.66;;;9.08;29.64
75788;BME280;64406;50.024;14.492;2023-04-06T11:28:55;98339.50;;;10.03;30.38
75788;BME280;64406;50.024;14.492;2023-04-06T11:31:25;98331.88;;;10.41;29.81
75788;BME280;64406;50.024;14.492;2023-04-06T11:33:57;98331.44;;;9.98;29.44
75788;BME280;64406;50.024;14.492;2023-04-06T11:36:23;98328.75;;;9.93;29.92
75788;BME280;64406;50.024;14.492;2023-04-06T11:38:52;98333.34;;;9.77;30.28
75788;BME280;64406;50.024;14.492;2023-04-06T11:41:17;98331.63;;;8.84;30.66
75788;BME280;64406;50.024;14.492;2023-04-06T11:43:49;98324.63;;;8.68;31.30
75788;BME280;64406;50.024;14.492;2023-04-06T11:46:17;98330.63;;;8.33;31.87
75788;BME280;64406;50.024;14.492;2023-04-06T11:48:45;98335.16;;;7.85;32.35
75788;BME280;64406;50.024;14.492;2023-04-06T11:51:11;98327.81;;;8.07;32.30
75788;BME280;64406;50.024;14.492;2023-04-06T11:53:44;98327.28;;;8.63;31.52
75788;BME280;64406;50.024;14.492;2023-04-06T11:56:11;98325.41;;;8.11;30.76
75788;BME280;64406;50.024;14.492;2023-04-06T11:58:37;98316.28;;;8.59;31.61
75788;BME280;64406;50.024;14.492;2023-04-06T12:01:05;98304.47;;;8.65;30.85
75788;BME280;64406;50.024;14.492;2023-04-06T12:03:31;98308.69;;;8.51;30.32
75788;BME280;64406;50.024;14.492;2023-04-06T12:05:56;98305.41;;;8.34;30.96
75788;BME280;64406;50.024;14.492;2023-04-06T12:08:22;98309.81;;;8.60;31.04
75788;BME280;64406;50.024;14.492;2023-04-06T12:10:50;98302.16;;;9.20;30.82
75788;BME280;64406;50.024;14.492;2023-04-06T12:13:16;98306.19;;;9.53;29.87
75788;BME280;64406;50.024;14.492;2023-04-06T12:15:42;98298.34;;;9.82;29.81
75788;BME280;64406;50.024;14.492;2023-04-06T12:18:07;98290.81;;;9.89;29.48
75788;BME280;64406;50.024;14.492;2023-04-06T12:20:33;98298.31;;;10.07;28.93
75788;BME280;64406;50.024;14.492;2023-04-06T12:22:59;98295.13;;;8.78;29.52
75788;BME280;64406;50.024;14.492;2023-04-06T12:25:25;98303.50;;;9.07;30.53
75788;BME280;64406;50.024;14.492;2023-04-06T12:27:51;98304.03;;;9.35;31.08
75788;BME280;64406;50.024;14.492;2023-04-06T12:30:16;98296.78;;;9.20;29.34
75788;BME280;64406;50.024;14.492;2023-04-06T12:32:42;98298.56;;;8.68;29.84
75788;BME280;64406;50.024;14.492;2023-04-06T12:35:08;98294.31;;;7.35;30.08
75788;BME280;64406;50.024;14.492;2023-04-06T12:37:34;98292.59;;;8.51;30.30
75788;BME280;64406;50.024;14.492;2023-04-06T12:39:59;98289.41;;;8.64;29.64
75788;BME280;64406;50.024;14.492;2023-04-06T12:42:26;98285.16;;;8.84;29.53
75788;BME280;64406;50.024;14.492;2023-04-06T12:44:51;98282.56;;;9.45;28.95
75788;BME280;64406;50.024;14.492;2023-04-06T12:47:17;98278.47;;;9.68;28.20
75788;BME280;64406;50.024;14.492;2023-04-06T12:49:43;98280.56;;;9.96;28.25
75788;BME280;64406;50.024;14.492;2023-04-06T12:52:10;98276.41;;;10.50;27.55
75788;BME280;64406;50.024;14.492;2023-04-06T12:54:35;98275.09;;;10.86;26.78
75788;BME280;64406;50.024;14.492;2023-04-06T12:57:01;98267.56;;;11.86;26.67
75788;BME280;64406;50.024;14.492;2023-04-06T12:59:27;98272.53;;;13.07;24.74
75788;BME280;64406;50.024;14.492;2023-04-06T13:01:56;98274.41;;;11.73;25.57
75788;BME280;64406;50.024;14.492;2023-04-06T13:04:22;98271.81;;;13.20;24.64